KLOZ

London-Corbin Arpt-Magee Field Airport

London, Kentucky, USA
KLOZ 241734Z 2418/2518 17005KT P6SM -SHRA VCTS SCT020CB OVC070 TEMPO 2418/2421 2SM SHRA OVC025 FM250600 VRB04KT P6SM VCSH BKN040 OVC070 WS020/20035KT FM251300 18005KT P6SM OVC025 FM251700 19007KT P6SM SCT020 BKN050
Issued Valid From Valid To
Sep-24 @ 17:34 UTC
(2 hours ago)
Sep-24 @ 18:00 UTC
(2 hours ago)
Sep-25 @ 18:00 UTC
(in 22 hours)
Sep-24 @ 18:00 to Sep-25 @ 06:00
KLOZ 241734Z 2418/2518 17005KT P6SM -SHRA VCTS SCT020CB OVC070
Wind Visibility Clouds Conditions
170° at 5 knots Greater than 6 miles
  • Scattered at 2,000' AGL
  • Overcast at 7,000' AGL
  • Light Rain
  • Area Thunderstorm
Temporary Sep-24 @ 18:00 to Sep-24 @ 21:00
TEMPO 2418/2421 2SM SHRA OVC025
Visibility Clouds Conditions
2 miles
  • Overcast at 2,500' AGL
  • Rain
From Sep-25 @ 06:00 to Sep-25 @ 13:00
FM250600 VRB04KT P6SM VCSH BKN040 OVC070 WS020/20035KT
Wind Visibility Clouds
Variable at 4 knots
 Wind shear 2,000' AGL from 200° at 35 knots
Greater than 6 miles
  • Broken at 4,000' AGL
  • Overcast at 7,000' AGL
From Sep-25 @ 13:00 to Sep-25 @ 17:00
FM251300 18005KT P6SM OVC025
Wind Visibility Clouds
180° at 5 knots Greater than 6 miles
  • Overcast at 2,500' AGL
From Sep-25 @ 17:00 to Sep-25 @ 18:00
FM251700 19007KT P6SM SCT020 BKN050
Wind Visibility Clouds
190° at 7 knots Greater than 6 miles
  • Scattered at 2,000' AGL
  • Broken at 5,000' AGL
KLOZ 241734Z 2418/2518 17005KT P6SM -SHRA VCTS SCT020CB OVC070 TEMPO 2418/2421 2SM SHRA OVC025 FM250600 VRB04KT P6SM VCSH BKN040 OVC070 WS020/20035KT FM251300 18005KT P6SM OVC025 FM251700 19007KT P6SM SCT020 BKN050
Issued Sep-24 @ 17:34 UTC
(2 hours ago)
Valid From Sep-24 @ 18:00 UTC
(2 hours ago)
Valid To Sep-25 @ 18:00 UTC
(in 22 hours)
Sep-24 @ 18:00 - Sep-25 @ 06:00
Wind Visibility
170° at 5 knots Greater than 6 miles
Clouds
  • Scattered at 2,000' AGL
  • Overcast at 7,000' AGL
Conditions
  • Light Rain
  • Area Thunderstorm
Temporary Sep-24 @ 18:00 - Sep-24 @ 21:00
Clouds
  • Overcast at 2,500' AGL
Conditions
  • Rain
From Sep-25 @ 06:00 - Sep-25 @ 13:00
Wind Visibility
Variable at 4 knots Greater than 6 miles
Clouds
  • Broken at 4,000' AGL
  • Overcast at 7,000' AGL
From Sep-25 @ 13:00 - Sep-25 @ 17:00
Wind Visibility
180° at 5 knots Greater than 6 miles
Clouds
  • Overcast at 2,500' AGL
From Sep-25 @ 17:00 - Sep-25 @ 18:00
Wind Visibility
190° at 7 knots Greater than 6 miles
Clouds
  • Scattered at 2,000' AGL
  • Broken at 5,000' AGL